Time;durP1;ratioP1;P1;durP2;ratioP2;P2;SDS_P1;SDS_P2;PMS_P1;PMS_P2;Temp;Humidity;BMP_temperature;BMP_pressure;BME280_temperature;BME280_humidity;BME280_pressure;Samples;Min_cycle;Max_cycle;Signal;HPM_P1;HPM_P2
2021/07/24 00:01:06;;;;;;;17.25;10.35;;;19.70;77.40;;;;;;4991602;28;20445;-71
2021/07/24 00:03:32;;;;;;;15.13;9.88;;;19.60;77.20;;;;;;4990936;28;20053;-72
2021/07/24 00:05:57;;;;;;;19.05;10.15;;;19.60;77.30;;;;;;4985158;28;20082;-72
2021/07/24 00:08:23;;;;;;;15.90;10.70;;;19.60;77.30;;;;;;4969146;28;20061;-72
2021/07/24 00:10:48;;;;;;;14.55;9.90;;;19.50;77.30;;;;;;4991200;28;20608;-72
2021/07/24 00:13:14;;;;;;;15.38;10.88;;;19.60;77.30;;;;;;4990995;28;20140;-72
2021/07/24 00:15:40;;;;;;;15.43;10.90;;;19.50;77.50;;;;;;4982056;28;20096;-72
2021/07/24 00:18:05;;;;;;;18.75;11.32;;;19.50;77.60;;;;;;4990222;28;20085;-71
2021/07/24 00:20:31;;;;;;;16.80;11.90;;;19.50;77.90;;;;;;4991817;28;20054;-71
2021/07/24 00:22:57;;;;;;;17.13;12.65;;;19.40;77.90;;;;;;4990822;28;20073;-71
2021/07/24 00:25:22;;;;;;;23.02;12.68;;;19.40;78.20;;;;;;4990572;28;20040;-71
2021/07/24 00:27:48;;;;;;;17.25;12.27;;;19.30;78.20;;;;;;4990220;28;20030;-72
2021/07/24 00:30:14;;;;;;;17.73;12.07;;;19.20;78.30;;;;;;4990220;28;20018;-71
2021/07/24 00:32:40;;;;;;;19.00;12.45;;;19.20;78.40;;;;;;4990619;28;20065;-71
2021/07/24 00:35:06;;;;;;;19.70;11.75;;;19.20;78.50;;;;;;4989952;28;20525;-71
2021/07/24 00:37:32;;;;;;;19.52;12.88;;;19.10;78.60;;;;;;4991206;28;20026;-71
2021/07/24 00:39:57;;;;;;;17.33;12.13;;;19.00;78.80;;;;;;4990370;28;20642;-71
2021/07/24 00:42:25;;;;;;;17.83;12.25;;;19.00;79.10;;;;;;4990959;28;20069;-71
2021/07/24 00:44:53;;;;;;;22.52;12.63;;;18.90;79.10;;;;;;5002817;28;20030;-71
2021/07/24 00:47:24;;;;;;;18.88;12.68;;;18.80;79.30;;;;;;4994907;28;20038;-71
2021/07/24 00:49:50;;;;;;;18.92;12.65;;;18.80;79.50;;;;;;4973460;28;20037;-72
2021/07/24 00:52:17;;;;;;;18.08;12.13;;;18.80;79.60;;;;;;4990303;28;20026;-71
2021/07/24 00:54:43;;;;;;;20.48;12.10;;;18.70;79.70;;;;;;4989797;28;20030;-70
2021/07/24 00:57:08;;;;;;;18.70;12.95;;;18.70;79.80;;;;;;4990127;28;20086;-70
2021/07/24 00:59:35;;;;;;;20.02;12.90;;;18.70;79.90;;;;;;4990012;28;20023;-71
2021/07/24 01:02:02;;;;;;;19.55;13.20;;;18.60;80.00;;;;;;4991110;28;20030;-71
2021/07/24 01:04:28;;;;;;;20.65;13.23;;;18.60;80.20;;;;;;4990068;28;20050;-71
2021/07/24 01:06:54;;;;;;;18.40;12.32;;;18.60;80.20;;;;;;4969856;28;20061;-71
2021/07/24 01:09:20;;;;;;;17.65;11.45;;;18.60;80.30;;;;;;4990211;28;20031;-71
2021/07/24 01:11:46;;;;;;;18.35;12.80;;;18.60;80.40;;;;;;4989949;28;20097;-71
2021/07/24 01:14:12;;;;;;;20.70;12.73;;;18.70;80.40;;;;;;4992587;28;20516;-71
2021/07/24 01:16:38;;;;;;;15.85;11.15;;;18.70;80.40;;;;;;4991608;28;20030;-71
2021/07/24 01:19:03;;;;;;;18.02;12.25;;;18.70;80.50;;;;;;4989678;28;20078;-71
2021/07/24 01:21:30;;;;;;;22.70;11.85;;;18.70;80.40;;;;;;4990436;28;20485;-71
2021/07/24 01:23:56;;;;;;;18.08;11.85;;;18.70;80.30;;;;;;4987637;28;20034;-71
2021/07/24 01:26:30;;;;;;;20.02;11.63;;;18.70;80.40;;;;;;4988804;28;20165;-71
2021/07/24 01:28:56;;;;;;;17.83;11.93;;;18.70;80.50;;;;;;4989205;28;20159;-71
2021/07/24 01:31:22;;;;;;;17.30;11.23;;;18.70;80.30;;;;;;4990950;28;20035;-72
2021/07/24 01:33:48;;;;;;;18.95;12.40;;;18.70;80.60;;;;;;4990353;28;20019;-69
2021/07/24 01:36:14;;;;;;;16.25;11.73;;;18.70;80.60;;;;;;4988381;28;20149;-69
2021/07/24 01:38:41;;;;;;;16.25;11.75;;;18.70;80.70;;;;;;4989876;28;20073;-69
2021/07/24 01:41:10;;;;;;;16.55;12.00;;;18.60;80.80;;;;;;4972280;28;20074;-69
2021/07/24 01:43:36;;;;;;;17.60;12.00;;;18.60;80.80;;;;;;4983788;28;20029;-69
2021/07/24 01:46:03;;;;;;;17.42;12.07;;;18.60;80.80;;;;;;4992467;28;20399;-70
2021/07/24 01:52:46;;;;;;;16.85;12.10;;;18.60;81.00;;;;;;4989852;28;20040;-70
2021/07/24 01:54:05;;;;;;;18.67;11.70;;;18.50;80.90;;;;;;4989028;28;20072;-70
2021/07/24 01:56:34;;;;;;;17.55;11.85;;;18.50;81.10;;;;;;4976218;28;20022;-69
2021/07/24 01:58:59;;;;;;;20.67;12.27;;;18.50;81.00;;;;;;4990641;28;20041;-70
2021/07/24 02:01:28;;;;;;;17.08;12.93;;;18.50;81.20;;;;;;4993458;28;20030;-70
2021/07/24 02:04:15;;;;;;;18.65;12.73;;;18.40;81.30;;;;;;4993178;28;20037;-69
2021/07/24 02:06:42;;;;;;;19.70;13.55;;;18.40;81.40;;;;;;4984776;28;20037;-69
2021/07/24 02:09:08;;;;;;;20.13;13.18;;;18.40;81.50;;;;;;4989243;28;20105;-69
2021/07/24 02:11:34;;;;;;;21.55;13.45;;;18.40;81.60;;;;;;4993231;28;20167;-70
2021/07/24 02:13:59;;;;;;;20.30;12.90;;;18.40;81.80;;;;;;5005299;23;20073;-68
2021/07/24 02:16:26;;;;;;;21.45;13.63;;;18.30;81.90;;;;;;4984800;28;20502;-68
2021/07/24 02:18:53;;;;;;;20.13;13.23;;;18.30;82.10;;;;;;4995254;28;20339;-69
2021/07/24 02:21:19;;;;;;;19.38;13.23;;;18.30;82.40;;;;;;4982917;28;20044;-69
2021/07/24 02:23:44;;;;;;;20.00;13.90;;;18.20;82.30;;;;;;4994308;28;20030;-67
2021/07/24 02:26:11;;;;;;;19.67;13.93;;;18.20;82.40;;;;;;4993868;28;20066;-69
2021/07/24 02:28:37;;;;;;;20.13;13.20;;;18.20;82.50;;;;;;4993223;28;20030;-69
2021/07/24 02:31:05;;;;;;;18.63;12.32;;;18.10;82.50;;;;;;4975732;28;20053;-69
2021/07/24 02:33:31;;;;;;;22.75;14.15;;;18.10;82.60;;;;;;4994068;28;20022;-69
2021/07/24 02:35:57;;;;;;;19.77;12.75;;;18.10;82.70;;;;;;4992568;28;20022;-70
2021/07/24 02:38:23;;;;;;;18.42;13.00;;;18.00;82.60;;;;;;4992839;28;20371;-67
2021/07/24 02:40:49;;;;;;;18.90;12.25;;;18.00;82.60;;;;;;4993652;28;20110;-69
2021/07/24 02:43:15;;;;;;;17.63;11.95;;;18.00;82.80;;;;;;4992896;28;20077;-70
2021/07/24 02:45:41;;;;;;;18.75;12.93;;;18.00;82.80;;;;;;5008671;28;20042;-70
2021/07/24 02:48:06;;;;;;;17.27;12.30;;;18.00;82.80;;;;;;4985686;28;20028;-67
2021/07/24 02:50:32;;;;;;;20.58;12.90;;;17.90;82.70;;;;;;4993059;28;20042;-67
2021/07/24 02:52:58;;;;;;;19.25;12.82;;;17.90;82.80;;;;;;4993725;28;20397;-68
2021/07/24 02:55:23;;;;;;;22.77;13.15;;;17.90;83.10;;;;;;4992373;28;20031;-67
2021/07/24 02:57:49;;;;;;;19.35;12.75;;;17.90;83.20;;;;;;4992454;28;20029;-69
2021/07/24 03:00:15;;;;;;;20.83;12.85;;;17.90;83.40;;;;;;4975289;28;20050;-69
2021/07/24 03:02:40;;;;;;;21.15;13.50;;;17.80;83.40;;;;;;4993538;28;20030;-68
2021/07/24 03:05:06;;;;;;;18.25;13.32;;;17.80;83.50;;;;;;4992675;28;20117;-67
2021/07/24 03:07:32;;;;;;;20.17;12.75;;;17.80;83.70;;;;;;4988953;28;20034;-68
2021/07/24 03:09:57;;;;;;;16.52;11.80;;;17.80;83.70;;;;;;4975369;28;20406;-66
2021/07/24 03:12:23;;;;;;;19.35;12.77;;;17.80;83.70;;;;;;4991973;28;20479;-66
2021/07/24 03:14:48;;;;;;;18.35;12.10;;;17.70;83.70;;;;;;4994370;28;20350;-68
2021/07/24 03:17:14;;;;;;;18.75;12.18;;;17.70;83.90;;;;;;4993560;28;20030;-67
2021/07/24 03:19:40;;;;;;;20.92;12.77;;;17.60;84.10;;;;;;4975552;28;20121;-66
2021/07/24 03:22:05;;;;;;;24.90;12.02;;;17.50;84.10;;;;;;4993457;28;20029;-67
2021/07/24 03:24:31;;;;;;;20.27;12.73;;;17.50;84.30;;;;;;4991893;28;20110;-69
2021/07/24 03:26:57;;;;;;;20.02;11.65;;;17.50;84.50;;;;;;4991165;28;20113;-68
2021/07/24 03:29:23;;;;;;;17.60;10.90;;;17.50;84.60;;;;;;4992399;28;20042;-70
2021/07/24 03:31:48;;;;;;;19.92;12.05;;;17.50;84.70;;;;;;4975794;28;20387;-71
2021/07/24 03:34:14;;;;;;;20.40;11.95;;;17.50;84.70;;;;;;4992699;28;20031;-69
2021/07/24 03:36:40;;;;;;;16.55;11.40;;;17.50;84.60;;;;;;4973569;28;20422;-67
2021/07/24 03:39:05;;;;;;;17.92;11.50;;;17.50;84.50;;;;;;4992097;28;20031;-67
2021/07/24 03:41:37;;;;;;;17.20;12.18;;;17.50;84.70;;;;;;4991280;28;20034;-69
2021/07/24 03:44:03;;;;;;;21.70;11.63;;;17.50;85.00;;;;;;4999249;28;20064;-69
2021/07/24 03:46:29;;;;;;;17.42;12.15;;;17.40;84.70;;;;;;4991954;28;20494;-67
2021/07/24 03:48:55;;;;;;;23.67;12.25;;;17.40;85.00;;;;;;4974602;28;20066;-71
2021/07/24 03:51:21;;;;;;;19.77;12.60;;;17.40;85.10;;;;;;4991633;28;20471;-67
2021/07/24 03:53:47;;;;;;;19.60;12.45;;;17.40;85.20;;;;;;4974630;28;20030;-71
2021/07/24 03:56:15;;;;;;;20.13;11.93;;;17.40;85.10;;;;;;4990954;28;20018;-67
2021/07/24 03:58:41;;;;;;;18.00;12.23;;;17.40;85.10;;;;;;4991671;28;20105;-68
2021/07/24 04:01:06;;;;;;;18.85;12.20;;;17.40;85.20;;;;;;4991398;28;20064;-68
2021/07/24 04:03:32;;;;;;;21.30;11.73;;;17.40;85.10;;;;;;4990839;28;20030;-67
2021/07/24 04:05:58;;;;;;;18.52;12.35;;;17.40;85.00;;;;;;4990361;28;20058;-68
2021/07/24 04:08:25;;;;;;;15.90;11.40;;;17.30;84.60;;;;;;4992508;28;20105;-71
2021/07/24 04:10:51;;;;;;;17.85;10.73;;;17.20;85.40;;;;;;4976536;28;20034;-67
2021/07/24 04:13:16;;;;;;;18.83;11.63;;;17.20;85.40;;;;;;4991608;28;20479;-67
2021/07/24 04:15:42;;;;;;;18.52;11.85;;;17.20;85.50;;;;;;4997424;28;20022;-68
2021/07/24 04:18:08;;;;;;;16.23;11.20;;;17.20;86.10;;;;;;4991204;28;20018;-67
2021/07/24 04:20:38;;;;;;;17.60;10.57;;;17.30;85.80;;;;;;4991065;28;20601;-66
2021/07/24 04:23:04;;;;;;;19.83;12.10;;;17.30;85.90;;;;;;4991039;28;20379;-67
2021/07/24 04:25:30;;;;;;;20.02;11.55;;;17.40;85.90;;;;;;4988508;28;20022;-71
2021/07/24 04:27:55;;;;;;;18.73;12.02;;;17.40;86.00;;;;;;4989713;28;20032;-67
2021/07/24 04:30:21;;;;;;;19.27;12.35;;;17.50;86.10;;;;;;4990778;28;20126;-67
2021/07/24 04:32:47;;;;;;;17.45;12.13;;;17.50;86.20;;;;;;4990841;28;20040;-67
2021/07/24 04:35:12;;;;;;;18.17;11.35;;;17.50;86.20;;;;;;4989659;28;20102;-69
2021/07/24 04:37:38;;;;;;;16.48;10.95;;;17.50;86.30;;;;;;4971496;28;20038;-67
2021/07/24 04:40:04;;;;;;;16.17;12.18;;;17.60;86.50;;;;;;4972829;28;20109;-67
2021/07/24 04:42:32;;;;;;;22.42;11.30;;;17.60;86.50;;;;;;4973355;28;20060;-67
2021/07/24 04:44:58;;;;;;;19.15;11.57;;;17.70;86.50;;;;;;4977100;28;20026;-68
2021/07/24 04:47:24;;;;;;;23.98;12.30;;;17.70;86.40;;;;;;4989776;28;20487;-67
2021/07/24 04:49:51;;;;;;;16.08;11.20;;;17.80;86.50;;;;;;4990800;28;20026;-68
2021/07/24 04:52:19;;;;;;;21.42;11.63;;;17.90;86.60;;;;;;4990194;28;20038;-68
2021/07/24 04:54:46;;;;;;;18.08;11.45;;;17.90;86.80;;;;;;4972106;28;20723;-67
2021/07/24 04:57:13;;;;;;;15.32;10.95;;;17.90;86.90;;;;;;4990772;28;20101;-68
2021/07/24 04:59:47;;;;;;;15.55;10.27;;;18.00;86.80;;;;;;4991070;28;20026;-70
2021/07/24 05:02:15;;;;;;;16.45;10.55;;;18.10;86.90;;;;;;4985261;28;20023;-68
2021/07/24 05:04:41;;;;;;;16.13;10.50;;;18.20;86.90;;;;;;4972129;28;20030;-68
2021/07/24 05:07:06;;;;;;;16.40;11.18;;;18.20;86.70;;;;;;4985555;28;20034;-67
2021/07/24 05:09:32;;;;;;;18.55;11.70;;;18.30;86.70;;;;;;4991085;28;20023;-68
2021/07/24 05:11:58;;;;;;;17.77;11.10;;;18.30;86.70;;;;;;4972914;28;20054;-68
2021/07/24 05:14:23;;;;;;;16.45;11.48;;;18.30;86.70;;;;;;4991988;28;20514;-69
2021/07/24 05:16:49;;;;;;;14.65;11.38;;;18.40;86.70;;;;;;4991634;28;21614;-68
2021/07/24 05:19:14;;;;;;;16.85;10.50;;;18.40;86.70;;;;;;4990545;28;20030;-68
2021/07/24 05:21:40;;;;;;;15.68;11.20;;;18.40;86.60;;;;;;4990917;28;20398;-69
2021/07/24 05:24:05;;;;;;;18.92;11.23;;;18.40;86.60;;;;;;4990129;28;20034;-70
2021/07/24 05:26:31;;;;;;;20.77;11.38;;;18.50;86.70;;;;;;4988200;28;20264;-68
2021/07/24 05:28:56;;;;;;;23.45;11.73;;;18.50;86.60;;;;;;4990364;28;20058;-68
2021/07/24 05:31:22;;;;;;;14.95;10.65;;;18.50;86.20;;;;;;4990510;28;20034;-67
2021/07/24 05:33:48;;;;;;;16.10;11.40;;;18.40;86.30;;;;;;4973461;28;20018;-67
2021/07/24 05:36:14;;;;;;;16.60;11.40;;;18.40;86.30;;;;;;4993279;28;20109;-70
2021/07/24 05:38:40;;;;;;;16.25;11.18;;;18.40;86.20;;;;;;4993566;28;20364;-67
2021/07/24 05:41:05;;;;;;;16.75;11.55;;;18.30;85.90;;;;;;4994403;28;20034;-67
2021/07/24 05:43:31;;;;;;;17.80;11.48;;;18.30;86.30;;;;;;4996568;28;20038;-68
2021/07/24 05:45:59;;;;;;;18.10;11.05;;;18.30;86.70;;;;;;5006911;28;20026;-68
2021/07/24 05:48:25;;;;;;;17.63;11.48;;;18.30;87.10;;;;;;4994168;28;20058;-69
2021/07/24 05:50:50;;;;;;;17.85;11.50;;;18.30;87.20;;;;;;4990963;28;20109;-68
2021/07/24 05:53:16;;;;;;;21.75;12.45;;;18.30;87.40;;;;;;4976764;28;20034;-70
2021/07/24 05:55:41;;;;;;;19.38;12.63;;;18.30;87.50;;;;;;4992515;28;20403;-70
2021/07/24 05:58:10;;;;;;;18.77;12.10;;;18.40;87.80;;;;;;4994017;28;20050;-67
2021/07/24 06:00:36;;;;;;;18.77;11.70;;;18.40;88.10;;;;;;4976303;28;20110;-70
2021/07/24 06:03:02;;;;;;;17.13;11.00;;;18.40;87.90;;;;;;4993643;28;20480;-67
2021/07/24 06:05:27;;;;;;;15.90;10.88;;;18.40;88.10;;;;;;4988455;28;20425;-67
2021/07/24 06:07:53;;;;;;;16.65;11.00;;;18.50;88.30;;;;;;4991559;28;20030;-67
2021/07/24 06:10:18;;;;;;;17.45;11.88;;;18.50;88.20;;;;;;4992193;28;20106;-67
2021/07/24 06:12:47;;;;;;;16.15;11.63;;;18.50;88.10;;;;;;4993553;28;20062;-66
2021/07/24 06:15:13;;;;;;;15.88;11.13;;;18.60;88.10;;;;;;4993691;28;20057;-67
2021/07/24 06:17:38;;;;;;;18.60;11.88;;;18.60;88.10;;;;;;4993537;28;20031;-67
2021/07/24 06:20:05;;;;;;;17.58;12.20;;;18.60;88.10;;;;;;4991981;28;20035;-67
2021/07/24 06:22:30;;;;;;;19.50;11.68;;;18.60;88.10;;;;;;4976364;28;20038;-67
2021/07/24 06:24:56;;;;;;;19.05;11.70;;;18.70;88.00;;;;;;4991671;28;20034;-67
2021/07/24 06:27:21;;;;;;;18.83;11.98;;;18.70;87.90;;;;;;4993401;28;20030;-67
2021/07/24 06:29:47;;;;;;;17.13;11.40;;;18.80;88.10;;;;;;4992266;28;20089;-67
2021/07/24 06:32:12;;;;;;;16.00;11.20;;;18.80;88.10;;;;;;4992876;28;20018;-67
2021/07/24 06:34:38;;;;;;;19.52;12.52;;;19.00;88.10;;;;;;4974316;28;20529;-67
2021/07/24 06:37:04;;;;;;;19.23;11.82;;;19.00;88.00;;;;;;4992556;28;20747;-67
2021/07/24 06:39:29;;;;;;;19.35;12.50;;;19.10;87.80;;;;;;4992730;28;20033;-67
2021/07/24 06:41:55;;;;;;;17.08;11.98;;;19.10;87.70;;;;;;4992484;28;20106;-67
2021/07/24 06:44:21;;;;;;;18.90;11.98;;;19.10;87.60;;;;;;4984059;28;20033;-67
2021/07/24 06:46:47;;;;;;;17.77;12.32;;;19.20;87.50;;;;;;5001470;28;20073;-67
2021/07/24 06:49:13;;;;;;;18.52;11.50;;;19.20;87.40;;;;;;4974275;28;20031;-67
2021/07/24 06:51:38;;;;;;;16.67;11.27;;;19.20;87.40;;;;;;4992754;28;20027;-67
2021/07/24 06:54:04;;;;;;;15.80;11.38;;;19.30;87.30;;;;;;4991116;28;20439;-67
2021/07/24 06:56:32;;;;;;;18.98;11.75;;;19.40;87.30;;;;;;4991363;28;20023;-67
2021/07/24 06:58:58;;;;;;;17.83;12.55;;;19.50;87.30;;;;;;4992468;28;20037;-67
2021/07/24 07:01:23;;;;;;;19.85;12.23;;;19.50;87.10;;;;;;4992615;28;20097;-66
2021/07/24 07:03:49;;;;;;;15.73;10.48;;;19.60;86.90;;;;;;4992934;28;20045;-67
2021/07/24 07:06:14;;;;;;;19.40;11.35;;;19.60;86.70;;;;;;4989762;28;20026;-67
2021/07/24 07:08:40;;;;;;;16.55;9.90;;;19.70;86.60;;;;;;4992538;28;20041;-67
2021/07/24 07:11:06;;;;;;;17.65;11.30;;;19.80;86.50;;;;;;4992111;28;20034;-68
2021/07/24 07:13:32;;;;;;;16.90;11.27;;;19.90;86.60;;;;;;4992531;28;20118;-67
2021/07/24 07:16:06;;;;;;;17.10;10.15;;;20.00;86.40;;;;;;5002945;28;20022;-67
2021/07/24 07:18:32;;;;;;;13.52;10.02;;;20.00;86.00;;;;;;4991079;28;20034;-67
2021/07/24 07:20:58;;;;;;;14.23;9.85;;;20.10;85.70;;;;;;4992375;28;20032;-68
2021/07/24 07:23:23;;;;;;;13.98;9.75;;;20.00;85.30;;;;;;4992137;28;20030;-67
2021/07/24 07:25:49;;;;;;;15.52;10.63;;;20.00;85.10;;;;;;4989416;28;20034;-67
2021/07/24 07:28:15;;;;;;;21.00;11.07;;;20.10;84.90;;;;;;4990304;28;20046;-67
2021/07/24 07:30:40;;;;;;;18.42;9.93;;;20.10;84.80;;;;;;4992811;28;20026;-66
2021/07/24 07:33:06;;;;;;;15.05;10.15;;;20.00;84.60;;;;;;4992552;28;20034;-66
2021/07/24 07:35:31;;;;;;;14.75;9.82;;;20.10;84.70;;;;;;5002677;28;20038;-67
2021/07/24 07:37:59;;;;;;;14.63;10.07;;;20.00;84.80;;;;;;4994130;28;20117;-67
2021/07/24 07:40:25;;;;;;;12.50;9.23;;;20.00;84.70;;;;;;4988513;28;20014;-67
2021/07/24 07:42:50;;;;;;;12.35;9.23;;;20.10;84.40;;;;;;4995391;28;20077;-66
2021/07/24 07:45:16;;;;;;;17.33;10.55;;;20.20;84.30;;;;;;5001463;28;20046;-67
2021/07/24 07:47:42;;;;;;;14.43;10.05;;;20.20;84.20;;;;;;4994402;28;20040;-66
2021/07/24 07:50:09;;;;;;;13.93;9.65;;;20.30;84.20;;;;;;4971267;28;20034;-66
2021/07/24 07:52:35;;;;;;;13.63;9.40;;;20.40;84.30;;;;;;4989986;28;20026;-66
2021/07/24 07:55:01;;;;;;;16.17;10.05;;;20.50;83.90;;;;;;4990341;28;20022;-66
2021/07/24 07:57:28;;;;;;;13.43;9.38;;;20.50;83.50;;;;;;4990303;28;20080;-67
2021/07/24 07:59:53;;;;;;;12.50;9.88;;;20.50;83.40;;;;;;4991118;28;20058;-67
2021/07/24 08:02:19;;;;;;;13.82;9.77;;;20.50;83.50;;;;;;4991305;28;20065;-67
2021/07/24 08:04:44;;;;;;;28.77;20.63;;;20.50;83.60;;;;;;4972703;28;20057;-68
2021/07/24 08:07:10;;;;;;;14.93;10.25;;;20.50;83.50;;;;;;4990159;28;20531;-66
2021/07/24 08:09:35;;;;;;;15.30;10.10;;;20.60;83.50;;;;;;4990388;28;20061;-65
2021/07/24 08:12:01;;;;;;;15.10;9.07;;;20.60;83.40;;;;;;4990542;28;20053;-66
2021/07/24 08:16:55;;;;;;;15.95;9.93;;;20.60;83.20;;;;;;5017086;28;20045;-69
2021/07/24 08:19:20;;;;;;;16.63;9.60;;;20.60;83.20;;;;;;5029961;28;20198;-70
2021/07/24 08:21:46;;;;;;;21.70;10.10;;;20.60;83.00;;;;;;4999171;28;20064;-70
2021/07/24 08:24:12;;;;;;;15.65;9.95;;;20.60;82.90;;;;;;5029002;28;20533;-69
2021/07/24 08:26:37;;;;;;;16.55;10.25;;;20.70;83.10;;;;;;5016325;28;20071;-68
2021/07/24 08:29:03;;;;;;;19.10;10.70;;;20.60;83.20;;;;;;5022416;28;20065;-69
2021/07/24 08:31:28;;;;;;;18.10;11.02;;;20.70;83.30;;;;;;5010903;28;20040;-70
2021/07/24 08:33:54;;;;;;;14.95;10.00;;;20.70;83.30;;;;;;5036008;28;20021;-71
2021/07/24 08:36:19;;;;;;;13.55;9.73;;;20.70;83.40;;;;;;5029188;28;20022;-68
2021/07/24 08:38:45;;;;;;;15.05;10.43;;;20.70;83.40;;;;;;5030648;28;20025;-68
2021/07/24 08:41:15;;;;;;;13.55;9.93;;;20.80;83.30;;;;;;5030491;28;20026;-70
2021/07/24 08:43:43;;;;;;;17.73;10.07;;;21.00;83.80;;;;;;5023224;28;20022;-69
2021/07/24 08:46:10;;;;;;;14.70;10.07;;;21.30;83.50;;;;;;5028821;28;20044;-70
2021/07/24 08:48:36;;;;;;;14.65;10.55;;;21.40;82.70;;;;;;5028915;28;20029;-69
2021/07/24 08:51:02;;;;;;;18.17;10.18;;;21.50;82.20;;;;;;5024971;28;20108;-70
2021/07/24 08:53:30;;;;;;;13.68;9.25;;;21.60;82.10;;;;;;5036584;28;20028;-69
2021/07/24 08:56:03;;;;;;;13.93;9.43;;;21.70;82.10;;;;;;5029465;28;20087;-69
2021/07/24 08:58:32;;;;;;;17.73;10.93;;;22.10;81.50;;;;;;5028987;28;20025;-69
2021/07/24 09:00:59;;;;;;;17.65;11.57;;;22.40;80.80;;;;;;5030239;28;20485;-69
2021/07/24 09:03:27;;;;;;;22.00;9.98;;;22.50;80.60;;;;;;5031145;28;20024;-69
2021/07/24 09:05:53;;;;;;;19.42;9.73;;;22.40;80.70;;;;;;5029745;28;20390;-69
2021/07/24 09:08:23;;;;;;;13.93;9.52;;;22.30;80.70;;;;;;5033252;28;20026;-72
2021/07/24 09:10:50;;;;;;;14.43;9.60;;;22.30;80.80;;;;;;5034207;28;20385;-70
2021/07/24 09:13:17;;;;;;;15.93;10.20;;;22.20;81.10;;;;;;5034421;28;20018;-70
2021/07/24 09:15:43;;;;;;;19.08;10.35;;;22.20;81.30;;;;;;5033569;28;20079;-69
2021/07/24 09:18:09;;;;;;;15.18;9.82;;;22.20;81.50;;;;;;5034847;28;20478;-68
2021/07/24 09:20:35;;;;;;;17.45;10.77;;;22.20;81.90;;;;;;5034572;28;20075;-69
2021/07/24 09:23:43;;;;;;;15.38;10.02;;;22.30;82.30;;;;;;5034538;28;20397;-69
2021/07/24 09:26:09;;;;;;;16.00;10.35;;;22.30;82.40;;;;;;5033132;28;20432;-69
2021/07/24 09:28:34;;;;;;;16.27;10.82;;;22.40;82.30;;;;;;5034385;28;20029;-69
2021/07/24 09:31:22;;;;;;;15.60;9.90;;;22.50;81.90;;;;;;5031788;28;20025;-69
2021/07/24 09:33:53;;;;;;;15.23;9.55;;;22.80;81.30;;;;;;5030293;28;20082;-68
2021/07/24 09:36:31;;;;;;;15.30;9.95;;;23.20;80.30;;;;;;5031097;28;20101;-70
2021/07/24 09:39:11;;;;;;;13.38;9.70;;;23.30;79.60;;;;;;5028548;28;20051;-71
2021/07/24 09:41:45;;;;;;;13.70;9.07;;;23.50;79.40;;;;;;5031656;28;20551;-69
2021/07/24 09:44:11;;;;;;;13.48;9.20;;;23.50;79.50;;;;;;5025146;28;20064;-70
2021/07/24 09:46:37;;;;;;;12.18;8.93;;;23.60;79.30;;;;;;5033857;28;20037;-70
2021/07/24 09:49:15;;;;;;;18.23;8.82;;;23.70;78.40;;;;;;5031750;28;20025;-72
2021/07/24 09:51:42;;;;;;;13.93;9.02;;;23.70;78.10;;;;;;5032759;28;20025;-71
2021/07/24 09:54:27;;;;;;;12.10;8.82;;;23.80;77.90;;;;;;5032263;28;20021;-70
2021/07/24 09:56:53;;;;;;;18.02;9.25;;;23.90;77.50;;;;;;5027733;28;20030;-68
2021/07/24 09:59:29;;;;;;;14.35;10.07;;;24.00;77.90;;;;;;5033110;28;20021;-70
2021/07/24 10:02:06;;;;;;;14.68;9.55;;;24.10;78.20;;;;;;5033673;28;20079;-73
2021/07/24 10:04:36;;;;;;;11.10;8.55;;;24.60;78.00;;;;;;5032909;28;20036;-68
2021/07/24 10:07:09;;;;;;;13.60;9.00;;;25.30;77.30;;;;;;5032596;28;20025;-68
2021/07/24 10:09:36;;;;;;;11.30;8.05;;;26.00;76.00;;;;;;5032919;28;20728;-68
2021/07/24 10:12:04;;;;;;;13.15;8.60;;;26.70;75.40;;;;;;5033148;28;20033;-68
2021/07/24 10:14:31;;;;;;;13.52;8.50;;;27.30;73.40;;;;;;5032752;28;20068;-69
2021/07/24 10:16:57;;;;;;;13.27;9.00;;;27.60;72.20;;;;;;5031572;28;20501;-69
2021/07/24 10:19:24;;;;;;;10.95;7.90;;;27.90;70.20;;;;;;5031839;28;20033;-71
2021/07/24 10:21:53;;;;;;;14.07;8.70;;;28.20;69.10;;;;;;5032189;28;20033;-69
2021/07/24 10:24:19;;;;;;;11.95;8.27;;;28.40;68.90;;;;;;5033161;28;20099;-69
2021/07/24 10:27:00;;;;;;;15.65;8.65;;;28.60;68.10;;;;;;5032226;28;20033;-69
2021/07/24 10:29:30;;;;;;;11.20;8.00;;;28.70;66.60;;;;;;5033411;28;20025;-68
2021/07/24 10:32:00;;;;;;;14.57;8.18;;;28.80;66.30;;;;;;5033352;28;20030;-69
2021/07/24 10:34:29;;;;;;;13.52;7.47;;;28.90;65.00;;;;;;5015277;28;20069;-70
2021/07/24 10:36:55;;;;;;;11.13;8.02;;;28.90;64.60;;;;;;5032099;28;20029;-68
2021/07/24 10:39:22;;;;;;;10.63;8.02;;;28.90;64.90;;;;;;5033342;28;20028;-68
2021/07/24 10:41:51;;;;;;;11.57;7.78;;;28.90;63.50;;;;;;5032716;28;20413;-68
2021/07/24 10:44:34;;;;;;;15.50;8.35;;;28.90;62.90;;;;;;5032786;28;20112;-68
2021/07/24 10:47:00;;;;;;;14.23;7.82;;;28.80;62.30;;;;;;5032555;28;20080;-68
2021/07/24 10:49:35;;;;;;;12.50;7.72;;;28.80;62.20;;;;;;5015312;28;20025;-68
2021/07/24 10:52:08;;;;;;;13.40;8.27;;;28.70;61.50;;;;;;5030602;28;20033;-69
2021/07/24 10:55:00;;;;;;;15.27;8.18;;;28.70;61.70;;;;;;5032211;28;20022;-70
2021/07/24 10:57:46;;;;;;;13.27;8.30;;;28.60;61.40;;;;;;5012898;28;20045;-68
2021/07/24 11:00:34;;;;;;;11.57;7.72;;;28.50;60.90;;;;;;5013067;28;20022;-68
2021/07/24 11:02:59;;;;;;;14.52;7.97;;;28.30;60.70;;;;;;5019587;28;20038;-69
2021/07/24 11:05:27;;;;;;;14.55;8.55;;;28.20;60.90;;;;;;5030890;28;20089;-69
2021/07/24 11:07:54;;;;;;;13.85;7.90;;;28.20;61.00;;;;;;5032620;28;20079;-69
2021/07/24 11:10:20;;;;;;;12.82;8.13;;;28.20;61.10;;;;;;5032764;28;20447;-70
2021/07/24 11:12:46;;;;;;;11.80;8.68;;;28.20;61.60;;;;;;5028473;28;20025;-70
2021/07/24 11:15:20;;;;;;;19.48;14.18;;;28.10;61.40;;;;;;5027780;28;20068;-71
2021/07/24 11:18:22;;;;;;;13.98;9.15;;;28.00;61.50;;;;;;5030040;28;20052;-71
2021/07/24 11:20:48;;;;;;;14.95;8.85;;;28.00;61.70;;;;;;5020843;28;20014;-70
2021/07/24 11:23:13;;;;;;;12.50;9.00;;;27.80;62.10;;;;;;5032469;28;20365;-69
2021/07/24 11:25:40;;;;;;;12.68;7.97;;;27.70;62.40;;;;;;5030744;28;20037;-69
2021/07/24 11:28:07;;;;;;;14.52;8.02;;;27.70;62.60;;;;;;5014207;28;20033;-68
2021/07/24 11:30:33;;;;;;;14.02;8.30;;;27.70;62.10;;;;;;5031131;28;20475;-69
2021/07/24 11:32:59;;;;;;;12.60;8.13;;;27.60;62.30;;;;;;5031740;28;20108;-69
2021/07/24 11:35:31;;;;;;;11.90;8.15;;;27.70;62.50;;;;;;5031038;28;20028;-70
2021/07/24 11:37:57;;;;;;;13.10;8.57;;;27.70;61.90;;;;;;5030841;28;20384;-69
2021/07/24 11:40:31;;;;;;;13.32;9.00;;;27.60;62.30;;;;;;5031622;28;20022;-69
2021/07/24 11:43:01;;;;;;;12.27;8.35;;;27.60;62.90;;;;;;5025915;28;20048;-71
2021/07/24 11:45:28;;;;;;;16.40;8.55;;;27.50;62.80;;;;;;5029506;28;20032;-71
2021/07/24 11:48:09;;;;;;;13.30;9.00;;;27.50;63.10;;;;;;5031839;28;20494;-72
2021/07/24 11:50:35;;;;;;;11.82;9.02;;;27.30;63.00;;;;;;5030856;28;20034;-68
2021/07/24 11:53:02;;;;;;;13.30;8.23;;;27.20;63.10;;;;;;5031215;28;20041;-70
2021/07/24 11:55:33;;;;;;;11.73;8.70;;;27.10;62.80;;;;;;5030520;28;20100;-71
2021/07/24 11:58:07;;;;;;;14.25;9.48;;;27.00;63.30;;;;;;5031487;28;20030;-71
2021/07/24 12:00:38;;;;;;;14.50;9.70;;;26.90;63.00;;;;;;5031294;28;20025;-71
2021/07/24 12:03:32;;;;;;;11.63;8.80;;;26.90;63.50;;;;;;5031609;28;20053;-71
2021/07/24 12:06:12;;;;;;;12.57;9.15;;;26.80;63.70;;;;;;5013173;28;20037;-73
2021/07/24 12:08:43;;;;;;;13.88;8.85;;;26.80;64.00;;;;;;5031386;28;20044;-72
2021/07/24 12:11:16;;;;;;;16.10;9.00;;;26.90;64.10;;;;;;5031184;28;20030;-71
2021/07/24 12:13:42;;;;;;;13.40;8.82;;;27.00;64.40;;;;;;5031220;28;20028;-70
2021/07/24 12:16:12;;;;;;;16.17;9.15;;;27.00;64.00;;;;;;5024012;28;20107;-73
2021/07/24 12:18:42;;;;;;;13.68;7.85;;;27.10;63.60;;;;;;5026050;28;20104;-71
2021/07/24 12:21:15;;;;;;;16.10;8.43;;;27.10;63.70;;;;;;5031251;28;20389;-72
2021/07/24 12:23:59;;;;;;;13.93;7.85;;;27.10;63.00;;;;;;5028443;28;20056;-72
2021/07/24 12:26:29;;;;;;;12.68;8.15;;;27.10;63.50;;;;;;5030214;28;20052;-73
2021/07/24 12:28:57;;;;;;;12.75;8.18;;;27.00;63.20;;;;;;5030759;28;20026;-72
2021/07/24 12:31:30;;;;;;;13.82;7.70;;;27.00;62.70;;;;;;5031348;28;20026;-74
2021/07/24 12:33:57;;;;;;;10.82;8.18;;;26.90;62.40;;;;;;5031158;28;20013;-71
2021/07/24 12:36:24;;;;;;;13.90;8.13;;;26.80;62.80;;;;;;5029759;28;20029;-74
2021/07/24 12:38:51;;;;;;;11.40;8.23;;;26.80;62.40;;;;;;5030781;28;20026;-72